createdAt,value
2018-09-06T00:01:12.167Z,9.70
2018-09-06T00:03:39.624Z,10.80
2018-09-06T00:06:07.202Z,8.60
2018-09-06T00:08:34.660Z,9.33
2018-09-06T00:11:02.233Z,12.53
2018-09-06T00:13:29.780Z,9.63
2018-09-06T00:15:57.250Z,8.60
2018-09-06T00:18:24.695Z,9.90
2018-09-06T00:20:52.160Z,9.40
2018-09-06T00:23:19.738Z,10.97
2018-09-06T00:25:47.211Z,9.67
2018-09-06T00:28:14.758Z,9.30
2018-09-06T00:30:42.217Z,11.77
2018-09-06T00:33:09.668Z,9.83
2018-09-06T00:35:37.147Z,7.73
2018-09-06T00:38:04.714Z,12.10
2018-09-06T00:40:32.163Z,10.33
2018-09-06T00:42:59.647Z,10.00
2018-09-06T00:45:27.162Z,9.37
2018-09-06T00:47:54.662Z,13.37
2018-09-06T00:50:22.227Z,14.33
2018-09-06T00:52:49.794Z,10.50
2018-09-06T00:55:17.261Z,10.67
2018-09-06T00:57:44.715Z,12.77
2018-09-06T01:00:12.280Z,8.87
2018-09-06T01:02:39.843Z,10.93
2018-09-06T01:05:07.403Z,10.60
2018-09-06T01:07:34.866Z,11.67
2018-09-06T01:10:02.321Z,13.57
2018-09-06T01:12:29.778Z,10.33
2018-09-06T01:14:57.242Z,9.53
2018-09-06T01:17:24.719Z,15.03
2018-09-06T01:19:52.285Z,10.07
2018-09-06T01:22:19.736Z,11.13
2018-09-06T01:24:47.217Z,11.17
2018-09-06T01:27:14.677Z,10.53
2018-09-06T01:29:42.143Z,13.93
2018-09-06T01:32:11.110Z,10.10
2018-09-06T01:34:38.583Z,12.60
2018-09-06T01:37:06.039Z,11.37
2018-09-06T01:39:33.500Z,13.67
2018-09-06T01:42:00.980Z,9.83
2018-09-06T01:44:28.539Z,9.00
2018-09-06T01:46:55.984Z,9.70
2018-09-06T01:49:23.463Z,12.10
2018-09-06T01:51:50.935Z,11.97
2018-09-06T01:54:18.385Z,11.83
2018-09-06T01:56:45.956Z,12.50
2018-09-06T01:59:13.419Z,12.70
2018-09-06T02:01:40.881Z,12.73
2018-09-06T02:04:08.351Z,14.83
2018-09-06T02:06:37.311Z,11.83
2018-09-06T02:09:04.772Z,12.40
2018-09-06T02:11:32.241Z,11.67
2018-09-06T02:13:59.696Z,13.93
2018-09-06T02:16:27.164Z,9.37
2018-09-06T02:18:54.754Z,10.67
2018-09-06T02:21:22.211Z,8.03
2018-09-06T02:23:49.660Z,11.20
2018-09-06T02:26:17.236Z,14.17
2018-09-06T02:28:44.811Z,11.30
2018-09-06T02:31:12.366Z,12.23
2018-09-06T02:33:39.836Z,11.87
2018-09-06T02:36:07.387Z,13.33
2018-09-06T02:38:34.950Z,13.17
2018-09-06T02:41:02.408Z,13.10
2018-09-06T02:43:29.873Z,9.77
2018-09-06T02:45:57.431Z,13.20
2018-09-06T02:48:24.894Z,12.87
2018-09-06T02:53:45.642Z,14.25
2018-09-06T02:56:13.095Z,11.73
2018-09-06T02:58:40.650Z,14.03
2018-09-06T03:01:09.142Z,10.23
2018-09-06T03:03:36.597Z,13.23
2018-09-06T03:06:04.068Z,12.00
2018-09-06T03:08:31.615Z,12.27
2018-09-06T03:10:59.067Z,16.83
2018-09-06T03:13:26.531Z,12.00
2018-09-06T03:15:53.990Z,15.77
2018-09-06T03:18:21.468Z,14.20
2018-09-06T03:20:49.036Z,12.87
2018-09-06T03:23:16.512Z,15.87
2018-09-06T03:25:43.960Z,13.67
2018-09-06T03:28:11.522Z,13.00
2018-09-06T03:30:38.977Z,14.70
2018-09-06T03:33:06.491Z,16.87
2018-09-06T03:35:33.899Z,14.10
2018-09-06T03:38:02.198Z,14.43
2018-09-06T03:40:29.752Z,16.33
2018-09-06T03:42:57.217Z,15.93
2018-09-06T03:45:24.669Z,15.73
2018-09-06T03:47:52.240Z,15.90
2018-09-06T03:50:20.456Z,16.53
2018-09-06T03:52:48.700Z,15.57
2018-09-06T03:55:16.174Z,17.23
2018-09-06T03:57:43.641Z,16.53
2018-09-06T04:00:11.109Z,14.70
2018-09-06T04:02:39.368Z,15.67
2018-09-06T04:05:06.842Z,17.03
2018-09-06T04:07:34.388Z,12.67
2018-09-06T04:10:01.843Z,14.80
2018-09-06T04:12:29.306Z,13.90
2018-09-06T04:14:56.772Z,17.00
2018-09-06T04:17:24.232Z,16.13
2018-09-06T04:19:51.690Z,13.83
2018-09-06T04:22:19.189Z,17.60
2018-09-06T04:24:46.624Z,16.83
2018-09-06T04:27:14.098Z,18.37
2018-09-06T04:29:41.649Z,16.87
2018-09-06T04:32:09.118Z,10.20
2018-09-06T04:34:36.573Z,15.13
2018-09-06T04:37:04.049Z,19.87
2018-09-06T04:39:31.495Z,14.97
2018-09-06T04:41:58.957Z,14.57
2018-09-06T04:44:26.430Z,21.40
2018-09-06T04:46:53.992Z,10.83
2018-09-06T04:49:21.551Z,19.20
2018-09-06T04:51:49.012Z,16.33
2018-09-06T04:54:16.470Z,20.40
2018-09-06T04:56:43.945Z,19.13
2018-09-06T04:59:11.444Z,16.57
2018-09-06T05:01:39.677Z,18.57
2018-09-06T05:04:07.171Z,18.57
2018-09-06T05:06:35.750Z,16.93
2018-09-06T05:09:03.213Z,17.97
2018-09-06T05:11:30.759Z,20.57
2018-09-06T05:13:58.320Z,16.13
2018-09-06T05:16:25.773Z,21.40
2018-09-06T05:18:53.251Z,18.97
2018-09-06T05:21:20.705Z,19.10
2018-09-06T05:23:48.180Z,16.50
2018-09-06T05:26:15.741Z,18.97
2018-09-06T05:28:43.208Z,15.07
2018-09-06T05:31:10.679Z,13.87
2018-09-06T05:33:38.141Z,11.87
2018-09-06T05:36:05.683Z,14.33
2018-09-06T05:38:33.070Z,16.07
2018-09-06T05:41:01.304Z,12.30
2018-09-06T05:43:28.770Z,12.20
2018-09-06T05:45:56.228Z,12.87
2018-09-06T05:48:23.711Z,12.27
2018-09-06T05:50:51.169Z,13.17
2018-09-06T05:53:18.655Z,12.07
2018-09-06T05:55:46.115Z,14.07
2018-09-06T05:58:13.576Z,12.40
2018-09-06T06:00:41.816Z,10.67
2018-09-06T06:03:09.263Z,13.93
2018-09-06T06:05:36.844Z,12.40
2018-09-06T06:11:02.606Z,16.15
2018-09-06T06:13:30.154Z,12.00
2018-09-06T06:15:57.695Z,9.53
2018-09-06T06:18:25.869Z,11.50
2018-09-06T06:20:53.364Z,12.17
2018-09-06T06:23:20.940Z,10.07
2018-09-06T06:25:48.498Z,11.33
2018-09-06T06:28:16.055Z,8.47
2018-09-06T06:30:43.521Z,14.03
2018-09-06T06:33:10.992Z,11.90
2018-09-06T06:35:39.261Z,10.87
2018-09-06T06:38:06.718Z,12.93
2018-09-06T06:40:34.181Z,11.07
2018-09-06T06:43:01.641Z,13.43
2018-09-06T06:45:29.095Z,10.23
2018-09-06T06:47:56.576Z,14.70
2018-09-06T06:50:24.095Z,12.60
2018-09-06T06:52:51.495Z,13.03
2018-09-06T06:55:18.959Z,10.57
2018-09-06T06:57:46.517Z,11.93
2018-09-06T07:00:13.971Z,10.37
2018-09-06T07:02:41.439Z,15.13
2018-09-06T07:05:09.018Z,14.17
2018-09-06T07:07:36.471Z,11.10
2018-09-06T07:10:04.035Z,12.13
2018-09-06T07:12:31.504Z,10.70
2018-09-06T07:14:59.059Z,11.23
2018-09-06T07:17:26.531Z,8.77
2018-09-06T07:19:54.092Z,9.23
2018-09-06T07:22:21.565Z,9.87
2018-09-06T07:24:49.775Z,11.17
2018-09-06T07:27:17.296Z,8.67
2018-09-06T07:29:44.752Z,8.60
2018-09-06T07:32:12.213Z,9.67
2018-09-06T07:34:39.677Z,7.23
2018-09-06T07:37:07.140Z,7.33
2018-09-06T07:39:34.609Z,8.37
2018-09-06T07:42:02.167Z,9.97
2018-09-06T07:44:29.621Z,8.77
2018-09-06T07:46:57.181Z,8.90
2018-09-06T07:49:24.555Z,6.27
2018-09-06T07:51:52.119Z,8.90
2018-09-06T07:54:19.588Z,10.20
2018-09-06T07:56:47.047Z,8.33
2018-09-06T07:59:14.613Z,10.10
2018-09-06T08:01:42.136Z,8.87
2018-09-06T08:04:09.551Z,8.30
2018-09-06T08:06:37.011Z,10.17
2018-09-06T08:09:04.479Z,6.80
2018-09-06T08:11:32.016Z,8.27
2018-09-06T08:13:59.482Z,7.47
2018-09-06T08:16:27.004Z,5.90
2018-09-06T08:18:54.576Z,5.53
2018-09-06T08:21:21.986Z,5.87
2018-09-06T08:23:49.446Z,6.43
2018-09-06T08:26:16.893Z,5.10
2018-09-06T08:28:44.452Z,7.00
2018-09-06T08:31:12.104Z,6.97
2018-09-06T08:33:40.301Z,10.03
2018-09-06T08:36:07.864Z,9.10
2018-09-06T08:38:35.313Z,7.93
2018-09-06T08:41:02.782Z,6.37
2018-09-06T08:43:30.225Z,7.70
2018-09-06T08:45:57.715Z,5.87
2018-09-06T08:48:25.211Z,7.93
2018-09-06T08:50:53.501Z,5.87
2018-09-06T08:53:21.715Z,5.37
2018-09-06T08:55:49.192Z,8.00
2018-09-06T08:58:16.672Z,7.70
2018-09-06T09:00:44.144Z,5.40
2018-09-06T09:03:11.663Z,6.40
2018-09-06T09:05:39.064Z,9.00
2018-09-06T09:08:06.514Z,7.37
2018-09-06T09:10:33.981Z,6.20
2018-09-06T09:13:01.593Z,5.77
2018-09-06T09:15:29.005Z,6.43
2018-09-06T09:17:56.562Z,8.03
2018-09-06T09:20:24.124Z,7.73
2018-09-06T09:22:51.587Z,6.17
2018-09-06T09:25:19.044Z,8.97
2018-09-06T09:27:46.508Z,7.10
2018-09-06T09:30:13.947Z,5.50
2018-09-06T09:32:41.439Z,6.53
2018-09-06T09:35:08.905Z,6.93
2018-09-06T09:37:36.363Z,8.07
2018-09-06T09:40:03.839Z,6.97
2018-09-06T09:42:32.056Z,7.67
2018-09-06T09:44:59.528Z,11.57
2018-09-06T09:49:53.676Z,9.10
2018-09-06T09:52:21.133Z,7.37
2018-09-06T09:54:48.707Z,5.17
2018-09-06T09:57:16.157Z,4.20
2018-09-06T09:59:43.638Z,6.60
2018-09-06T10:02:11.096Z,5.70
2018-09-06T10:04:38.570Z,4.70
2018-09-06T10:07:06.018Z,4.33
2018-09-06T10:09:33.472Z,4.07
2018-09-06T10:12:00.930Z,4.37
2018-09-06T10:14:28.393Z,4.70
2018-09-06T10:16:55.853Z,4.17
2018-09-06T10:19:23.420Z,4.73
2018-09-06T10:21:50.885Z,4.37
2018-09-06T10:24:18.342Z,4.20
2018-09-06T10:26:45.800Z,4.47
2018-09-06T10:29:13.271Z,5.43
2018-09-06T10:31:40.838Z,6.20
2018-09-06T10:34:08.304Z,4.03
2018-09-06T10:36:35.860Z,6.80
2018-09-06T10:39:03.329Z,4.90
2018-09-06T10:41:30.895Z,5.57
2018-09-06T10:43:58.377Z,5.57
2018-09-06T10:46:26.622Z,3.53
2018-09-06T10:48:54.096Z,5.50
2018-09-06T10:51:21.568Z,3.43
2018-09-06T10:53:49.015Z,6.93
2018-09-06T10:56:16.481Z,6.40
2018-09-06T10:58:43.939Z,4.53
2018-09-06T11:01:11.409Z,4.67
2018-09-06T11:03:38.987Z,4.53
2018-09-06T11:06:06.445Z,4.63
2018-09-06T11:08:33.993Z,4.90
2018-09-06T11:11:01.556Z,4.17
2018-09-06T11:13:29.028Z,5.73
2018-09-06T11:15:56.480Z,8.37
2018-09-06T11:18:23.947Z,4.07
2018-09-06T11:20:51.404Z,3.43
2018-09-06T11:23:18.859Z,4.97
2018-09-06T11:25:46.320Z,4.70
2018-09-06T11:28:13.776Z,6.37
2018-09-06T11:30:42.379Z,7.90
2018-09-06T11:33:09.887Z,7.43
2018-09-06T11:35:37.403Z,10.53
2018-09-06T11:38:04.863Z,8.03
2018-09-06T11:40:32.506Z,7.57
2018-09-06T11:43:00.004Z,8.53
2018-09-06T11:45:27.478Z,11.40
2018-09-06T11:47:54.945Z,9.10
2018-09-06T11:50:22.394Z,10.80
2018-09-06T11:52:49.847Z,10.23
2018-09-06T11:55:17.311Z,9.73
2018-09-06T11:57:44.863Z,6.40
2018-09-06T12:00:12.333Z,7.53
2018-09-06T12:02:39.792Z,7.80
2018-09-06T12:05:07.261Z,10.53
2018-09-06T12:07:34.720Z,8.37
2018-09-06T12:10:02.281Z,6.77
2018-09-06T12:12:29.740Z,6.33
2018-09-06T12:14:57.211Z,4.37
2018-09-06T12:17:24.659Z,7.00
2018-09-06T12:19:52.112Z,4.80
2018-09-06T12:22:19.572Z,7.10
2018-09-06T12:24:48.174Z,4.00
2018-09-06T12:27:15.641Z,5.53
2018-09-06T12:29:43.091Z,5.43
2018-09-06T12:32:10.570Z,4.77
2018-09-06T12:34:38.125Z,5.70
2018-09-06T12:37:05.580Z,4.53
2018-09-06T12:39:33.171Z,3.40
2018-09-06T12:42:00.629Z,4.77
2018-09-06T12:44:28.096Z,5.00
2018-09-06T12:46:55.554Z,4.43
2018-09-06T12:49:23.006Z,4.23
2018-09-06T12:51:51.241Z,4.57
2018-09-06T12:54:18.687Z,2.67
2018-09-06T12:56:47.030Z,5.37
2018-09-06T12:59:15.640Z,4.27
2018-09-06T13:01:43.891Z,2.97
2018-09-06T13:04:11.451Z,3.63
2018-09-06T13:06:38.925Z,8.77
2018-09-06T13:09:06.494Z,4.90
2018-09-06T13:11:34.056Z,3.83
2018-09-06T13:14:01.522Z,4.47
2018-09-06T13:16:29.021Z,5.50
2018-09-06T13:18:56.421Z,2.90
2018-09-06T13:21:23.891Z,2.33
2018-09-06T13:23:51.340Z,3.37
2018-09-06T13:26:18.831Z,4.37
2018-09-06T13:28:46.278Z,2.93
2018-09-06T13:31:13.749Z,2.43
2018-09-06T13:33:41.201Z,3.63
2018-09-06T13:36:08.654Z,3.83
2018-09-06T13:38:36.120Z,3.53
2018-09-06T13:41:03.595Z,3.10
2018-09-06T13:43:31.190Z,4.13
2018-09-06T13:45:58.719Z,2.87
2018-09-06T13:48:26.291Z,2.60
2018-09-06T13:50:53.755Z,3.00
2018-09-06T13:53:21.218Z,3.17
2018-09-06T13:55:48.670Z,5.00
2018-09-06T13:58:16.128Z,2.83
2018-09-06T14:00:43.690Z,4.60
2018-09-06T14:03:11.296Z,2.83
2018-09-06T14:05:39.560Z,2.47
2018-09-06T14:08:06.994Z,2.00
2018-09-06T14:10:34.459Z,2.13
2018-09-06T14:13:01.935Z,2.10
2018-09-06T14:15:29.413Z,2.43
2018-09-06T14:17:56.962Z,4.03
2018-09-06T14:20:24.428Z,4.03
2018-09-06T14:22:51.899Z,3.13
2018-09-06T14:25:19.362Z,2.50
2018-09-06T14:27:46.890Z,1.23
2018-09-06T14:30:14.463Z,2.00
2018-09-06T14:32:41.927Z,2.43
2018-09-06T14:35:09.497Z,3.37
2018-09-06T14:37:37.055Z,1.27
2018-09-06T14:40:04.517Z,2.83
2018-09-06T14:42:31.977Z,1.93
2018-09-06T14:44:59.431Z,1.83
2018-09-06T14:47:26.910Z,1.87
2018-09-06T14:49:54.360Z,4.30
2018-09-06T14:52:21.839Z,6.53
2018-09-06T14:54:49.431Z,3.50
2018-09-06T14:57:16.864Z,3.53
2018-09-06T14:59:44.315Z,2.17
2018-09-06T15:02:11.780Z,3.77
2018-09-06T15:04:39.233Z,3.13
2018-09-06T15:07:06.707Z,2.63
2018-09-06T15:09:34.173Z,2.40
2018-09-06T15:12:01.628Z,3.13
2018-09-06T15:14:29.092Z,2.60
2018-09-06T15:16:56.535Z,4.57
2018-09-06T15:19:24.061Z,2.40
2018-09-06T15:21:51.495Z,4.70
2018-09-06T15:24:18.943Z,4.00
2018-09-06T15:26:46.514Z,3.80
2018-09-06T15:29:13.976Z,3.00
2018-09-06T15:31:41.436Z,3.93
2018-09-06T15:34:08.991Z,2.70
2018-09-06T15:36:36.443Z,3.00
2018-09-06T15:39:03.918Z,5.10
2018-09-06T15:41:31.363Z,2.10
2018-09-06T15:43:58.820Z,3.87
2018-09-06T15:46:26.306Z,2.83
2018-09-06T15:48:53.789Z,4.00
2018-09-06T15:51:21.345Z,2.30
2018-09-06T15:53:48.812Z,5.17
2018-09-06T15:56:16.295Z,6.47
2018-09-06T15:58:44.535Z,3.23
2018-09-06T16:01:12.104Z,4.00
2018-09-06T16:03:39.562Z,2.23
2018-09-06T16:06:07.191Z,4.00
2018-09-06T16:08:34.673Z,3.10
2018-09-06T16:11:02.239Z,2.60
2018-09-06T16:13:29.701Z,3.87
2018-09-06T16:15:57.157Z,5.23
2018-09-06T16:18:25.392Z,4.03
2018-09-06T16:20:53.642Z,2.83
2018-09-06T16:23:21.230Z,5.27
2018-09-06T16:25:48.785Z,3.73
2018-09-06T16:28:16.334Z,3.57
2018-09-06T16:30:43.812Z,3.03
2018-09-06T16:33:11.390Z,5.43
2018-09-06T16:35:39.622Z,2.03
2018-09-06T16:38:07.324Z,5.17
2018-09-06T16:40:34.792Z,2.70
2018-09-06T16:43:03.963Z,2.07
2018-09-06T16:45:31.525Z,1.87
2018-09-06T16:47:58.997Z,2.20
2018-09-06T16:50:26.562Z,2.80
2018-09-06T16:52:54.027Z,2.87
2018-09-06T16:55:21.477Z,3.20
2018-09-06T16:57:49.758Z,1.70
2018-09-06T17:00:18.361Z,3.90
2018-09-06T17:02:45.827Z,1.73
2018-09-06T17:05:13.335Z,2.67
2018-09-06T17:07:40.770Z,1.90
2018-09-06T17:10:09.148Z,2.73
2018-09-06T17:12:37.369Z,3.23
2018-09-06T17:15:04.821Z,2.50
2018-09-06T17:17:32.285Z,5.77
2018-09-06T17:19:59.741Z,2.37
2018-09-06T17:22:27.247Z,2.47
2018-09-06T17:24:54.925Z,2.63
2018-09-06T17:27:22.374Z,2.37
2018-09-06T17:29:49.944Z,2.53
2018-09-06T17:32:17.456Z,4.97
2018-09-06T17:34:45.645Z,2.17
2018-09-06T17:37:13.108Z,1.80
2018-09-06T17:39:40.576Z,2.63
2018-09-06T17:42:08.039Z,5.83
2018-09-06T17:44:35.496Z,1.90
2018-09-06T17:47:03.200Z,1.30
2018-09-06T17:49:31.900Z,1.77
2018-09-06T17:51:59.364Z,2.77
2018-09-06T17:54:26.943Z,1.97
2018-09-06T17:56:54.496Z,2.83
2018-09-06T17:59:21.985Z,1.30
2018-09-06T18:01:50.191Z,3.30
2018-09-06T18:04:17.649Z,2.97
2018-09-06T18:06:45.156Z,3.17
2018-09-06T18:09:12.603Z,2.27
2018-09-06T18:11:40.273Z,1.90
2018-09-06T18:14:07.738Z,1.70
2018-09-06T18:16:35.305Z,3.07
2018-09-06T18:19:03.892Z,2.73
2018-09-06T18:21:31.451Z,2.73
2018-09-06T18:23:59.012Z,2.33
2018-09-06T18:26:26.575Z,3.10
2018-09-06T18:28:54.071Z,2.97
2018-09-06T18:31:22.334Z,4.77
2018-09-06T18:33:49.789Z,3.20
2018-09-06T18:36:17.276Z,2.47
2018-09-06T18:38:44.710Z,1.90
2018-09-06T18:41:12.277Z,4.93
2018-09-06T18:43:39.979Z,2.57
2018-09-06T18:46:08.183Z,3.63
2018-09-06T18:48:35.705Z,1.80
2018-09-06T18:51:04.166Z,2.63
2018-09-06T18:53:31.632Z,4.13
2018-09-06T18:55:59.088Z,2.37
2018-09-06T18:58:26.748Z,1.60
2018-09-06T19:00:54.199Z,1.67
2018-09-06T19:03:21.693Z,2.33
2018-09-06T19:05:50.618Z,3.17
2018-09-06T19:08:18.868Z,5.27
2018-09-06T19:10:46.333Z,3.87
2018-09-06T19:13:13.796Z,1.90
2018-09-06T19:15:41.347Z,1.97
2018-09-06T19:18:08.821Z,1.40
2018-09-06T19:20:36.380Z,3.50
2018-09-06T19:23:03.826Z,1.70
2018-09-06T19:25:31.302Z,2.93
2018-09-06T19:27:58.752Z,1.93
2018-09-06T19:30:26.232Z,1.70
2018-09-06T19:32:53.683Z,1.93
2018-09-06T19:35:21.142Z,1.80
2018-09-06T19:37:48.623Z,3.63
2018-09-06T19:40:16.064Z,1.87
2018-09-06T19:42:43.539Z,1.90
2018-09-06T19:45:11.088Z,1.60
2018-09-06T19:47:38.567Z,2.53
2018-09-06T19:50:06.032Z,4.07
2018-09-06T19:52:33.586Z,2.47
2018-09-06T19:55:01.151Z,6.63
2018-09-06T19:57:28.703Z,3.07
2018-09-06T19:59:56.227Z,1.67
2018-09-06T20:02:23.633Z,4.30
2018-09-06T20:04:51.372Z,4.90
2018-09-06T20:07:18.830Z,1.70
2018-09-06T20:09:46.288Z,3.77
2018-09-06T20:12:13.735Z,4.50
2018-09-06T20:14:42.333Z,2.00
2018-09-06T20:17:09.794Z,3.03
2018-09-06T20:19:37.305Z,4.90
2018-09-06T20:22:04.773Z,2.10
2018-09-06T20:24:32.230Z,3.43
2018-09-06T20:26:59.796Z,2.07
2018-09-06T20:29:27.277Z,4.90
2018-09-06T20:31:56.367Z,2.00
2018-09-06T20:34:23.817Z,2.07
2018-09-06T20:36:51.376Z,2.33
2018-09-06T20:39:18.947Z,3.00
2018-09-06T20:41:46.539Z,2.63
2018-09-06T20:44:13.952Z,2.23
2018-09-06T20:46:41.536Z,2.20
2018-09-06T20:49:08.989Z,3.83
2018-09-06T20:51:36.460Z,2.97
2018-09-06T20:54:03.919Z,2.33
2018-09-06T20:56:31.380Z,2.43
2018-09-06T20:58:59.031Z,4.37
2018-09-06T21:01:26.492Z,2.80
2018-09-06T21:03:53.976Z,6.73
2018-09-06T21:06:21.428Z,3.30
2018-09-06T21:08:48.999Z,4.37
2018-09-06T21:11:16.563Z,4.57
2018-09-06T21:13:44.014Z,2.23
2018-09-06T21:16:11.466Z,5.27
2018-09-06T21:18:39.079Z,4.70
2018-09-06T21:21:07.296Z,3.20
2018-09-06T21:23:34.816Z,5.47
2018-09-06T21:26:02.258Z,2.30
2018-09-06T21:28:29.710Z,3.87
2018-09-06T21:30:57.196Z,3.63
2018-09-06T21:33:24.640Z,2.40
2018-09-06T21:35:52.204Z,2.93
2018-09-06T21:38:19.776Z,3.00
2018-09-06T21:40:47.235Z,2.97
2018-09-06T21:43:14.691Z,2.00
2018-09-06T21:45:42.252Z,4.10
2018-09-06T21:48:09.725Z,4.63
2018-09-06T21:50:38.313Z,2.90
2018-09-06T21:53:05.885Z,4.53
2018-09-06T21:55:33.448Z,5.30
2018-09-06T21:58:00.904Z,2.20
2018-09-06T22:00:28.466Z,3.53
2018-09-06T22:02:55.909Z,4.93
2018-09-06T22:05:23.372Z,3.30
2018-09-06T22:07:50.848Z,4.10
2018-09-06T22:10:18.304Z,3.43
2018-09-06T22:12:45.768Z,3.50
2018-09-06T22:15:13.232Z,3.27
2018-09-06T22:17:40.700Z,3.13
2018-09-06T22:20:08.154Z,3.60
2018-09-06T22:22:35.720Z,4.13
2018-09-06T22:25:03.192Z,4.03
2018-09-06T22:27:30.639Z,3.17
2018-09-06T22:29:58.224Z,7.27
2018-09-06T22:32:25.688Z,5.50
2018-09-06T22:34:54.392Z,4.13
2018-09-06T22:37:21.841Z,3.37
2018-09-06T22:39:49.299Z,2.53
2018-09-06T22:42:16.755Z,3.30
2018-09-06T22:44:44.327Z,3.57
2018-09-06T22:47:11.897Z,4.40
2018-09-06T22:49:39.358Z,4.30
2018-09-06T22:52:06.824Z,3.90
2018-09-06T22:54:34.387Z,4.03
2018-09-06T22:57:01.848Z,2.90
2018-09-06T22:59:29.392Z,2.70
2018-09-06T23:01:56.861Z,3.33
2018-09-06T23:04:24.541Z,4.07
2018-09-06T23:06:53.501Z,3.87
2018-09-06T23:09:20.983Z,4.23
2018-09-06T23:11:48.555Z,3.67
2018-09-06T23:14:16.013Z,3.53
2018-09-06T23:16:43.571Z,3.67
2018-09-06T23:19:11.066Z,3.00
2018-09-06T23:21:39.322Z,3.13
2018-09-06T23:24:06.896Z,1.87
2018-09-06T23:26:34.449Z,4.00
2018-09-06T23:29:01.907Z,3.90
2018-09-06T23:31:29.369Z,4.87
2018-09-06T23:33:57.031Z,4.13
2018-09-06T23:36:24.549Z,4.17
2018-09-06T23:38:51.950Z,4.03
2018-09-06T23:41:19.615Z,6.00
2018-09-06T23:43:47.076Z,4.17
2018-09-06T23:46:14.534Z,3.50
2018-09-06T23:48:42.031Z,3.30
2018-09-06T23:51:09.495Z,3.83
2018-09-06T23:53:36.941Z,5.10
2018-09-06T23:56:04.605Z,5.67
2018-09-06T23:58:32.062Z,3.40
